UGD172 HUEN-HRYR
Flight info
| Callsign | UGD172 |
|---|---|
| Flight time | 0h 41m |
| Altitude | 34000 |
| Route | MANDY1B MANDY UL432 ALSAR ALSAR1B |
| Aircraft | C700/M-SBDGHM1RWXY/LB2 |
Departure
| Time | 2026-05-08 17:28 |
|---|---|
| Airport | Entebbe International Airport (HUEN) |
Arrival
| Time | 2026-05-08 18:09 |
|---|---|
| Airport | Kigali International Airport (HRYR) |
| Time | Latitude | Longitude | Altitude | Speed | Heading |
|---|---|---|---|---|---|
| 2026-05-08 17:07 | 0.04015 | 32.45378 | 3770 ft | 0 kts | 30° |
| 2026-05-08 17:16 | 0.04013 | 32.45376 | 3770 ft | 2 kts | 30° |
| 2026-05-08 17:17 | 0.03999 | 32.45368 | 3756 ft | 2 kts | 21° |
| 2026-05-08 17:17 | 0.03982 | 32.45367 | 3776 ft | 2 kts | 338° |
| 2026-05-08 17:17 | 0.03972 | 32.45373 | 3770 ft | 0 kts | 305° |
| 2026-05-08 17:19 | 0.03975 | 32.45370 | 3775 ft | 2 kts | 305° |
| 2026-05-08 17:19 | 0.03996 | 32.45335 | 3775 ft | 10 kts | 302° |
| 2026-05-08 17:19 | 0.04043 | 32.45259 | 3770 ft | 16 kts | 297° |
| 2026-05-08 17:20 | 0.04084 | 32.45168 | 3777 ft | 11 kts | 311° |
| 2026-05-08 17:20 | 0.04121 | 32.45189 | 3772 ft | 7 kts | 48° |
| 2026-05-08 17:20 | 0.04172 | 32.45225 | 3776 ft | 11 kts | 29° |
| 2026-05-08 17:20 | 0.04260 | 32.45257 | 3781 ft | 16 kts | 346° |
| 2026-05-08 17:21 | 0.04335 | 32.45162 | 3776 ft | 21 kts | 300° |
| 2026-05-08 17:21 | 0.04425 | 32.45026 | 3773 ft | 25 kts | 304° |
| 2026-05-08 17:21 | 0.04527 | 32.44863 | 3770 ft | 30 kts | 303° |
| 2026-05-08 17:21 | 0.04646 | 32.44676 | 3772 ft | 33 kts | 303° |
| 2026-05-08 17:22 | 0.04770 | 32.44483 | 3770 ft | 30 kts | 303° |
| 2026-05-08 17:22 | 0.04855 | 32.44348 | 3775 ft | 23 kts | 302° |
| 2026-05-08 17:22 | 0.04916 | 32.44254 | 3776 ft | 10 kts | 302° |
| 2026-05-08 17:22 | 0.04958 | 32.44184 | 3772 ft | 13 kts | 301° |
| 2026-05-08 17:23 | 0.05012 | 32.44098 | 3781 ft | 16 kts | 302° |
| 2026-05-08 17:23 | 0.05088 | 32.44054 | 3776 ft | 13 kts | 57° |
| 2026-05-08 17:23 | 0.05063 | 32.44071 | 3771 ft | 3 kts | 181° |
| 2026-05-08 17:23 | 0.05028 | 32.44080 | 3771 ft | 7 kts | 149° |
| 2026-05-08 17:24 | 0.04982 | 32.44120 | 3771 ft | 10 kts | 165° |
| 2026-05-08 17:24 | 0.04970 | 32.44100 | 3776 ft | 1 kts | 333° |
| 2026-05-08 17:24 | 0.04971 | 32.44100 | 3775 ft | 0 kts | 334° |
| 2026-05-08 17:24 | 0.04974 | 32.44098 | 3782 ft | 5 kts | 334° |
| 2026-05-08 17:25 | 0.05061 | 32.44030 | 3776 ft | 23 kts | 303° |
| 2026-05-08 17:25 | 0.05254 | 32.43960 | 3781 ft | 35 kts | 345° |
| 2026-05-08 17:25 | 0.05402 | 32.43789 | 3784 ft | 15 kts | 303° |
| 2026-05-08 17:25 | 0.05418 | 32.43764 | 3781 ft | 0 kts | 301° |
| 2026-05-08 17:26 | 0.05426 | 32.43751 | 3781 ft | 8 kts | 303° |
| 2026-05-08 17:26 | 0.05487 | 32.43680 | 3782 ft | 18 kts | 285° |
| 2026-05-08 17:26 | 0.05444 | 32.43638 | 3780 ft | 18 kts | 176° |
| 2026-05-08 17:27 | 0.05419 | 32.43642 | 3780 ft | 0 kts | 172° |
| 2026-05-08 17:27 | 0.05290 | 32.43660 | 3778 ft | 45 kts | 173° |
| 2026-05-08 17:27 | 0.04435 | 32.43776 | 3778 ft | 147 kts | 172° |
| 2026-05-08 17:27 | 0.03260 | 32.43935 | 4366 ft | 176 kts | 172° |
| 2026-05-08 17:28 | 0.01978 | 32.44133 | 5253 ft | 207 kts | 170° |
| 2026-05-08 17:28 | 0.00979 | 32.44249 | 5894 ft | 218 kts | 181° |
| 2026-05-08 17:28 | -0.00425 | 32.43657 | 7097 ft | 228 kts | 224° |
| 2026-05-08 17:28 | -0.01493 | 32.42484 | 8354 ft | 229 kts | 214° |
| 2026-05-08 17:29 | -0.03000 | 32.42126 | 9617 ft | 228 kts | 168° |
| 2026-05-08 17:29 | -0.04360 | 32.42854 | 10661 ft | 237 kts | 139° |
| 2026-05-08 17:29 | -0.05768 | 32.44012 | 10828 ft | 287 kts | 143° |
| 2026-05-08 17:29 | -0.07463 | 32.44983 | 11584 ft | 274 kts | 152° |
| 2026-05-08 17:30 | -0.09305 | 32.45712 | 12324 ft | 287 kts | 163° |
| 2026-05-08 17:30 | -0.11260 | 32.46075 | 13698 ft | 290 kts | 172° |
| 2026-05-08 17:30 | -0.13302 | 32.46250 | 14753 ft | 297 kts | 174° |
| 2026-05-08 17:30 | -0.15378 | 32.46492 | 15805 ft | 304 kts | 171° |
| 2026-05-08 17:31 | -0.17502 | 32.46822 | 16700 ft | 319 kts | 170° |
| 2026-05-08 17:31 | -0.19763 | 32.47016 | 16752 ft | 327 kts | 182° |
| 2026-05-08 17:31 | -0.21997 | 32.46658 | 16823 ft | 330 kts | 195° |
| 2026-05-08 17:31 | -0.24106 | 32.45815 | 18069 ft | 327 kts | 206° |
| 2026-05-08 17:32 | -0.26009 | 32.44517 | 19000 ft | 335 kts | 220° |
| 2026-05-08 17:32 | -0.27696 | 32.42881 | 19943 ft | 340 kts | 224° |
| 2026-05-08 17:32 | -0.29402 | 32.41213 | 20878 ft | 345 kts | 224° |
| 2026-05-08 17:32 | -0.31105 | 32.39546 | 21787 ft | 351 kts | 224° |
| 2026-05-08 17:33 | -0.32877 | 32.37805 | 22707 ft | 356 kts | 224° |
| 2026-05-08 17:33 | -0.34659 | 32.36057 | 23594 ft | 361 kts | 224° |
| 2026-05-08 17:33 | -0.36445 | 32.34305 | 24337 ft | 366 kts | 224° |
| 2026-05-08 17:33 | -0.38272 | 32.32516 | 25104 ft | 370 kts | 224° |
| 2026-05-08 17:34 | -0.40119 | 32.30704 | 25861 ft | 374 kts | 224° |
| 2026-05-08 17:34 | -0.41982 | 32.28876 | 26613 ft | 378 kts | 224° |
| 2026-05-08 17:34 | -0.43863 | 32.27033 | 27357 ft | 382 kts | 224° |
| 2026-05-08 17:34 | -0.45775 | 32.25158 | 28042 ft | 385 kts | 224° |
| 2026-05-08 17:35 | -0.47702 | 32.23268 | 28406 ft | 390 kts | 224° |
| 2026-05-08 17:35 | -0.49635 | 32.21360 | 28826 ft | 392 kts | 224° |
| 2026-05-08 17:35 | -0.51584 | 32.19427 | 29171 ft | 397 kts | 224° |
| 2026-05-08 17:35 | -0.53579 | 32.17455 | 29173 ft | 410 kts | 224° |
| 2026-05-08 17:36 | -0.55643 | 32.15421 | 29187 ft | 422 kts | 224° |
| 2026-05-08 17:36 | -0.57730 | 32.13359 | 29231 ft | 432 kts | 224° |
| 2026-05-08 17:36 | -0.59874 | 32.11238 | 29607 ft | 433 kts | 225° |
| 2026-05-08 17:36 | -0.61819 | 32.08935 | 29925 ft | 436 kts | 235° |
| 2026-05-08 17:37 | -0.63332 | 32.06303 | 30200 ft | 438 kts | 245° |
| 2026-05-08 17:37 | -0.64366 | 32.03432 | 30473 ft | 440 kts | 255° |
| 2026-05-08 17:37 | -0.64881 | 32.00421 | 30737 ft | 442 kts | 265° |
| 2026-05-08 17:37 | -0.65022 | 31.97547 | 30966 ft | 444 kts | 267° |
| 2026-05-08 17:38 | -0.65169 | 31.94458 | 31224 ft | 445 kts | 267° |
| 2026-05-08 17:38 | -0.65323 | 31.91360 | 31461 ft | 447 kts | 267° |
| 2026-05-08 17:38 | -0.65472 | 31.88250 | 31699 ft | 448 kts | 267° |
| 2026-05-08 17:38 | -0.65619 | 31.85136 | 31937 ft | 450 kts | 267° |
| 2026-05-08 17:39 | -0.65769 | 31.82003 | 32161 ft | 451 kts | 267° |
| 2026-05-08 17:39 | -0.65922 | 31.78862 | 32379 ft | 453 kts | 267° |
| 2026-05-08 17:39 | -0.66073 | 31.75713 | 32576 ft | 455 kts | 267° |
| 2026-05-08 17:39 | -0.66222 | 31.72596 | 32793 ft | 456 kts | 267° |
| 2026-05-08 17:40 | -0.66383 | 31.69378 | 33004 ft | 457 kts | 266° |
| 2026-05-08 17:40 | -0.66887 | 31.66290 | 33256 ft | 456 kts | 256° |
| 2026-05-08 17:40 | -0.67909 | 31.63294 | 33510 ft | 456 kts | 246° |
| 2026-05-08 17:40 | -0.69415 | 31.60510 | 33762 ft | 455 kts | 237° |
| 2026-05-08 17:41 | -0.73501 | 31.55609 | 33794 ft | 464 kts | 228° |
| 2026-05-08 17:41 | -0.77809 | 31.50708 | 33813 ft | 473 kts | 228° |
| 2026-05-08 17:42 | -0.82206 | 31.45741 | 33814 ft | 481 kts | 228° |
| 2026-05-08 17:42 | -0.86656 | 31.40694 | 33818 ft | 488 kts | 228° |
| 2026-05-08 17:43 | -0.91178 | 31.35575 | 33822 ft | 493 kts | 228° |
| 2026-05-08 17:43 | -0.95715 | 31.30435 | 33830 ft | 498 kts | 228° |
| 2026-05-08 17:44 | -1.00320 | 31.25218 | 33831 ft | 502 kts | 228° |
| 2026-05-08 17:44 | -1.04938 | 31.19987 | 33836 ft | 500 kts | 228° |
| 2026-05-08 17:45 | -1.09541 | 31.14773 | 33841 ft | 501 kts | 228° |
| 2026-05-08 17:45 | -1.14156 | 31.09543 | 33847 ft | 501 kts | 228° |
| 2026-05-08 17:46 | -1.18766 | 31.04320 | 33307 ft | 498 kts | 228° |
| 2026-05-08 17:46 | -1.21033 | 31.01752 | 32570 ft | 487 kts | 228° |
| 2026-05-08 17:46 | -1.23247 | 30.99242 | 31848 ft | 476 kts | 228° |
| 2026-05-08 17:47 | -1.25420 | 30.96780 | 31143 ft | 470 kts | 228° |
| 2026-05-08 17:47 | -1.27584 | 30.94330 | 30448 ft | 474 kts | 228° |
| 2026-05-08 17:47 | -1.29795 | 30.91825 | 29730 ft | 484 kts | 228° |
| 2026-05-08 17:47 | -1.31252 | 30.90173 | 29217 ft | 472 kts | 228° |
| 2026-05-08 17:48 | -1.34100 | 30.86944 | 28216 ft | 468 kts | 228° |
| 2026-05-08 17:48 | -1.36244 | 30.84516 | 27482 ft | 454 kts | 228° |
| 2026-05-08 17:48 | -1.38268 | 30.82220 | 26581 ft | 429 kts | 228° |
| 2026-05-08 17:48 | -1.40204 | 30.80028 | 25652 ft | 411 kts | 228° |
| 2026-05-08 17:49 | -1.42061 | 30.77924 | 24750 ft | 397 kts | 228° |
| 2026-05-08 17:49 | -1.43858 | 30.75886 | 23876 ft | 385 kts | 228° |
| 2026-05-08 17:49 | -1.45537 | 30.73849 | 22888 ft | 375 kts | 235° |
| 2026-05-08 17:49 | -1.46930 | 30.71673 | 21884 ft | 367 kts | 237° |
| 2026-05-08 17:50 | -1.48320 | 30.69565 | 20921 ft | 360 kts | 236° |
| 2026-05-08 17:50 | -1.49699 | 30.67506 | 19989 ft | 354 kts | 236° |
| 2026-05-08 17:50 | -1.51040 | 30.65464 | 19086 ft | 349 kts | 236° |
| 2026-05-08 17:50 | -1.52359 | 30.63445 | 18183 ft | 344 kts | 236° |
| 2026-05-08 17:51 | -1.53650 | 30.61481 | 17192 ft | 340 kts | 236° |
| 2026-05-08 17:51 | -1.54920 | 30.59552 | 16227 ft | 324 kts | 236° |
| 2026-05-08 17:51 | -1.56137 | 30.57702 | 15280 ft | 311 kts | 236° |
| 2026-05-08 17:51 | -1.57307 | 30.55922 | 14363 ft | 302 kts | 236° |
| 2026-05-08 17:52 | -1.58447 | 30.54188 | 13415 ft | 295 kts | 236° |
| 2026-05-08 17:52 | -1.59557 | 30.52500 | 12415 ft | 288 kts | 236° |
| 2026-05-08 17:52 | -1.61722 | 30.49207 | 10541 ft | 278 kts | 236° |
| 2026-05-08 17:53 | -1.62770 | 30.47611 | 9696 ft | 273 kts | 236° |
| 2026-05-08 17:53 | -1.63755 | 30.46114 | 9589 ft | 239 kts | 236° |
| 2026-05-08 17:53 | -1.64610 | 30.44812 | 9619 ft | 209 kts | 236° |
| 2026-05-08 17:53 | -1.65361 | 30.43669 | 9654 ft | 185 kts | 236° |
| 2026-05-08 17:54 | -1.65908 | 30.42597 | 9656 ft | 168 kts | 254° |
| 2026-05-08 17:54 | -1.66143 | 30.41499 | 9659 ft | 162 kts | 254° |
| 2026-05-08 17:54 | -1.66545 | 30.40239 | 9692 ft | 225 kts | 250° |
| 2026-05-08 17:54 | -1.67110 | 30.38512 | 9719 ft | 296 kts | 252° |
| 2026-05-08 17:55 | -1.67803 | 30.36328 | 9736 ft | 363 kts | 251° |
| 2026-05-08 17:55 | -1.68585 | 30.33907 | 9736 ft | 359 kts | 251° |
| 2026-05-08 17:55 | -1.69337 | 30.31602 | 9725 ft | 338 kts | 251° |
| 2026-05-08 17:55 | -1.70040 | 30.29444 | 9725 ft | 313 kts | 251° |
| 2026-05-08 17:56 | -1.70686 | 30.27449 | 9717 ft | 291 kts | 251° |
| 2026-05-08 17:56 | -1.71296 | 30.25568 | 9720 ft | 279 kts | 251° |
| 2026-05-08 17:56 | -1.71887 | 30.23748 | 9716 ft | 271 kts | 251° |
| 2026-05-08 17:56 | -1.72464 | 30.21972 | 9713 ft | 267 kts | 251° |
| 2026-05-08 17:57 | -1.73020 | 30.20257 | 9705 ft | 252 kts | 251° |
| 2026-05-08 17:57 | -1.73546 | 30.18635 | 9705 ft | 237 kts | 251° |
| 2026-05-08 17:57 | -1.74035 | 30.17128 | 9705 ft | 220 kts | 251° |
| 2026-05-08 17:57 | -1.74530 | 30.15609 | 9714 ft | 238 kts | 251° |
| 2026-05-08 17:58 | -1.75030 | 30.14064 | 9717 ft | 235 kts | 251° |
| 2026-05-08 17:58 | -1.75543 | 30.12484 | 9715 ft | 240 kts | 251° |
| 2026-05-08 17:58 | -1.76058 | 30.10896 | 9715 ft | 240 kts | 251° |
| 2026-05-08 17:58 | -1.76570 | 30.09314 | 9715 ft | 239 kts | 251° |
| 2026-05-08 17:59 | -1.77083 | 30.07733 | 9715 ft | 239 kts | 251° |
| 2026-05-08 17:59 | -1.77596 | 30.06153 | 9717 ft | 239 kts | 251° |
| 2026-05-08 17:59 | -1.78110 | 30.04575 | 9717 ft | 239 kts | 251° |
| 2026-05-08 17:59 | -1.78622 | 30.02988 | 9722 ft | 239 kts | 251° |
| 2026-05-08 18:00 | -1.79135 | 30.01403 | 9713 ft | 239 kts | 251° |
| 2026-05-08 18:00 | -1.80163 | 29.98236 | 9721 ft | 239 kts | 251° |
| 2026-05-08 18:00 | -1.80671 | 29.96656 | 9743 ft | 234 kts | 251° |
| 2026-05-08 18:01 | -1.81179 | 29.95090 | 9736 ft | 240 kts | 250° |
| 2026-05-08 18:01 | -1.81711 | 29.93509 | 9728 ft | 239 kts | 249° |
| 2026-05-08 18:01 | -1.82516 | 29.92098 | 9724 ft | 238 kts | 229° |
| 2026-05-08 18:01 | -1.83732 | 29.90989 | 9721 ft | 237 kts | 212° |
| 2026-05-08 18:02 | -1.85225 | 29.90308 | 9724 ft | 235 kts | 195° |
| 2026-05-08 18:02 | -1.86301 | 29.90097 | 9722 ft | 234 kts | 187° |
| 2026-05-08 18:02 | -1.88398 | 29.89831 | 9738 ft | 212 kts | 179° |
| 2026-05-08 18:02 | -1.89778 | 29.90073 | 9646 ft | 199 kts | 163° |
| 2026-05-08 18:03 | -1.91041 | 29.90648 | 9431 ft | 202 kts | 147° |
| 2026-05-08 18:03 | -1.92112 | 29.91547 | 9232 ft | 201 kts | 132° |
| 2026-05-08 18:03 | -1.92897 | 29.92677 | 9223 ft | 195 kts | 118° |
| 2026-05-08 18:03 | -1.93355 | 29.93933 | 9221 ft | 192 kts | 103° |
| 2026-05-08 18:04 | -1.93568 | 29.95216 | 9219 ft | 175 kts | 100° |
| 2026-05-08 18:04 | -1.93771 | 29.96325 | 9187 ft | 163 kts | 101° |
| 2026-05-08 18:04 | -1.93965 | 29.97421 | 9210 ft | 156 kts | 101° |
| 2026-05-08 18:04 | -1.94154 | 29.98497 | 9213 ft | 156 kts | 101° |
| 2026-05-08 18:05 | -1.94343 | 29.99572 | 9164 ft | 160 kts | 101° |
| 2026-05-08 18:05 | -1.94536 | 30.00664 | 8860 ft | 159 kts | 101° |
| 2026-05-08 18:05 | -1.94725 | 30.01740 | 8469 ft | 155 kts | 101° |
| 2026-05-08 18:05 | -1.94909 | 30.02795 | 8078 ft | 153 kts | 100° |
| 2026-05-08 18:06 | -1.95066 | 30.03854 | 7604 ft | 157 kts | 97° |
| 2026-05-08 18:06 | -1.95209 | 30.04909 | 7133 ft | 152 kts | 99° |
| 2026-05-08 18:06 | -1.95390 | 30.05933 | 6656 ft | 149 kts | 102° |
| 2026-05-08 18:06 | -1.95636 | 30.06950 | 6204 ft | 148 kts | 103° |
| 2026-05-08 18:07 | -1.95840 | 30.07957 | 5840 ft | 146 kts | 101° |
| 2026-05-08 18:07 | -1.96018 | 30.08966 | 5570 ft | 144 kts | 100° |
| 2026-05-08 18:07 | -1.96164 | 30.09936 | 5377 ft | 143 kts | 98° |
| 2026-05-08 18:07 | -1.96322 | 30.10899 | 5232 ft | 140 kts | 100° |
| 2026-05-08 18:08 | -1.96514 | 30.11867 | 5036 ft | 140 kts | 99° |
| 2026-05-08 18:08 | -1.96672 | 30.12810 | 4902 ft | 133 kts | 99° |
| 2026-05-08 18:08 | -1.96810 | 30.13618 | 4882 ft | 109 kts | 99° |
| 2026-05-08 18:08 | -1.96913 | 30.14212 | 4879 ft | 68 kts | 100° |
| 2026-05-08 18:09 | -1.96981 | 30.14592 | 4875 ft | 46 kts | 100° |
| 2026-05-08 18:09 | -1.97025 | 30.14863 | 4878 ft | 34 kts | 94° |
| 2026-05-08 18:09 | -1.97047 | 30.15020 | 4878 ft | 5 kts | 153° |
| 2026-05-08 18:09 | -1.97052 | 30.15002 | 4876 ft | 6 kts | 277° |
| 2026-05-08 18:10 | -1.97039 | 30.14930 | 4873 ft | 15 kts | 280° |
| 2026-05-08 18:10 | -1.97015 | 30.14796 | 4878 ft | 24 kts | 279° |
| 2026-05-08 18:10 | -1.96982 | 30.14611 | 4877 ft | 31 kts | 281° |
| 2026-05-08 18:10 | -1.96941 | 30.14378 | 4878 ft | 37 kts | 280° |
| 2026-05-08 18:11 | -1.96895 | 30.14112 | 4876 ft | 41 kts | 281° |
| 2026-05-08 18:11 | -1.96850 | 30.13858 | 4879 ft | 33 kts | 280° |
| 2026-05-08 18:11 | -1.96811 | 30.13644 | 4882 ft | 30 kts | 278° |
| 2026-05-08 18:11 | -1.96777 | 30.13446 | 4882 ft | 28 kts | 279° |
| 2026-05-08 18:12 | -1.96732 | 30.13355 | 4881 ft | 8 kts | 346° |
| 2026-05-08 18:12 | -1.96675 | 30.13361 | 4881 ft | 9 kts | 10° |
| 2026-05-08 18:12 | -1.96666 | 30.13363 | 4881 ft | 0 kts | 10° |
| 2026-05-08 18:15 | -1.96661 | 30.13364 | 4881 ft | 3 kts | 10° |
| 2026-05-08 18:15 | -1.96617 | 30.13382 | 4881 ft | 9 kts | 47° |
| 2026-05-08 18:16 | -1.96581 | 30.13443 | 4880 ft | 11 kts | 354° |
| 2026-05-08 18:16 | -1.96531 | 30.13413 | 4878 ft | 4 kts | 325° |
| 2026-05-08 18:16 | -1.96528 | 30.13411 | 4879 ft | 0 kts | 325° |